Time;durP1;ratioP1;P1;durP2;ratioP2;P2;SDS_P1;SDS_P2;PMS_P1;PMS_P2;Temp;Humidity;BMP_temperature;BMP_pressure;BME280_temperature;BME280_humidity;BME280_pressure;Samples;Min_cycle;Max_cycle;Signal;HPM_P1;HPM_P2
2022/09/20 00:00:37;;;;;;;;;;;;;;;17.36;47.79;100672.03;5077878;28;932;-60
2022/09/20 00:03:03;;;;;;;;;;;;;;;17.20;47.18;100661.09;5079468;28;1095;-60
2022/09/20 00:05:28;;;;;;;;;;;;;;;16.96;46.94;100671.06;5079284;28;2217;-60
2022/09/20 00:07:54;;;;;;;;;;;;;;;17.01;46.19;100658.16;5079304;28;1138;-61
2022/09/20 00:10:22;;;;;;;;;;;;;;;17.82;47.17;100663.53;5078996;28;1914;-61
2022/09/20 00:12:47;;;;;;;;;;;;;;;17.22;47.61;100649.81;5078850;28;906;-61
2022/09/20 00:15:12;;;;;;;;;;;;;;;17.05;46.88;100637.25;5079476;28;1215;-61
2022/09/20 00:17:38;;;;;;;;;;;;;;;17.01;46.48;100641.69;5079290;28;1131;-60
2022/09/20 00:20:03;;;;;;;;;;;;;;;18.04;46.88;100641.13;5079486;28;1083;-60
2022/09/20 00:22:29;;;;;;;;;;;;;;;17.27;47.61;100630.56;5079224;28;1159;-60
2022/09/20 00:24:54;;;;;;;;;;;;;;;17.12;46.93;100633.38;5078802;28;955;-60
2022/09/20 00:27:20;;;;;;;;;;;;;;;17.08;46.43;100631.22;5078739;28;1179;-60
2022/09/20 00:29:45;;;;;;;;;;;;;;;17.87;47.02;100637.94;5078900;28;1990;-59
2022/09/20 00:32:11;;;;;;;;;;;;;;;17.32;47.66;100629.72;5078851;28;1416;-59
2022/09/20 00:37:20;;;;;;;;;;;;;;;17.02;46.57;100628.75;5067836;28;1234;-60
2022/09/20 00:39:45;;;;;;;;;;;;;;;16.87;46.07;100624.09;5078882;28;1120;-60
2022/09/20 00:42:12;;;;;;;;;;;;;;;17.76;46.78;100631.69;5078931;28;1123;-60
2022/09/20 00:44:44;;;;;;;;;;;;;;;17.22;47.33;100616.84;5060600;28;1182;-60
2022/09/20 00:47:11;;;;;;;;;;;;;;;17.02;46.86;100613.09;5077857;28;1214;-60
2022/09/20 00:49:37;;;;;;;;;;;;;;;17.91;47.06;100611.53;5077916;28;1988;-59
2022/09/20 00:52:02;;;;;;;;;;;;;;;17.27;47.74;100603.09;5060671;28;1088;-60
2022/09/20 00:54:27;;;;;;;;;;;;;;;17.01;47.05;100607.88;5078700;28;1187;-60
2022/09/20 00:56:53;;;;;;;;;;;;;;;17.03;46.25;100608.44;5060496;28;1244;-60
2022/09/20 00:59:20;;;;;;;;;;;;;;;16.94;45.89;100610.91;5042557;28;1180;-60
2022/09/20 01:01:47;;;;;;;;;;;;;;;16.82;45.72;100607.66;5040413;28;1116;-59
2022/09/20 01:04:13;;;;;;;;;;;;;;;17.74;46.36;100595.38;5026593;28;1200;-60
2022/09/20 01:06:39;;;;;;;;;;;;;;;17.12;46.98;100603.97;5057876;28;2608;-60
2022/09/20 01:09:06;;;;;;;;;;;;;;;17.02;46.62;100601.28;5040556;28;1970;-60
2022/09/20 01:11:31;;;;;;;;;;;;;;;17.81;47.12;100603.31;5057928;28;1132;-60
2022/09/20 01:13:57;;;;;;;;;;;;;;;17.28;47.49;100596.50;5040212;28;1384;-60
2022/09/20 01:16:22;;;;;;;;;;;;;;;17.02;47.05;100607.59;5057972;28;1151;-60
2022/09/20 01:18:48;;;;;;;;;;;;;;;16.85;47.07;100607.09;5040628;28;1172;-60
2022/09/20 01:21:13;;;;;;;;;;;;;;;17.53;47.41;100602.94;5040570;28;1160;-60
2022/09/20 01:23:42;;;;;;;;;;;;;;;17.10;47.33;100604.25;5039691;28;1199;-60
2022/09/20 01:26:07;;;;;;;;;;;;;;;17.04;46.68;100605.41;5057673;28;1166;-60
2022/09/20 01:28:33;;;;;;;;;;;;;;;17.76;47.02;100621.50;5058023;28;1984;-61
2022/09/20 01:31:10;;;;;;;;;;;;;;;17.36;47.43;100612.41;5057634;28;1147;-61
2022/09/20 01:33:42;;;;;;;;;;;;;;;17.12;46.91;100605.91;5026050;28;1113;-59
2022/09/20 01:36:07;;;;;;;;;;;;;;;16.95;46.74;100612.56;5057463;28;2502;-59
2022/09/20 01:38:41;;;;;;;;;;;;;;;17.05;46.67;100623.50;5039571;28;1211;-60
2022/09/20 01:41:11;;;;;;;;;;;;;;;17.39;47.34;100620.06;5057139;28;1116;-59
2022/09/20 01:43:39;;;;;;;;;;;;;;;17.06;46.97;100622.41;5039651;28;1155;-60
2022/09/20 01:46:27;;;;;;;;;;;;;;;17.88;47.03;100623.06;5039503;28;1183;-59
2022/09/20 01:48:55;;;;;;;;;;;;;;;17.21;47.53;100613.28;5039377;28;1910;-59
2022/09/20 01:51:32;;;;;;;;;;;;;;;17.20;47.06;100619.06;5057271;28;1124;-61
2022/09/20 01:54:16;;;;;;;;;;;;;;;17.68;47.71;100616.59;5057110;28;1112;-60
2022/09/20 01:57:05;;;;;;;;;;;;;;;17.26;47.58;100609.69;5056818;28;1211;-60
2022/09/20 01:59:39;;;;;;;;;;;;;;;17.13;46.99;100602.88;5076075;28;1580;-59
2022/09/20 02:02:06;;;;;;;;;;;;;;;16.98;46.23;100606.50;5076878;28;1099;-59
2022/09/20 02:04:32;;;;;;;;;;;;;;;16.95;45.88;100606.25;5059170;28;2330;-59
2022/09/20 02:07:12;;;;;;;;;;;;;;;17.10;46.38;100593.28;5076993;28;1147;-59
2022/09/20 02:09:46;;;;;;;;;;;;;;;17.48;47.33;100603.00;5077022;28;1906;-59
2022/09/20 02:12:20;;;;;;;;;;;;;;;17.07;46.93;100602.09;5058862;28;1183;-59
2022/09/20 02:14:58;;;;;;;;;;;;;;;18.03;47.47;100611.16;5076590;28;1120;-61
2022/09/20 02:17:42;;;;;;;;;;;;;;;17.34;47.54;100603.59;5059131;28;1151;-60
2022/09/20 02:20:26;;;;;;;;;;;;;;;17.17;46.96;100600.41;5076771;28;1111;-61
2022/09/20 02:23:10;;;;;;;;;;;;;;;17.06;46.41;100597.69;5076721;28;1179;-60
2022/09/20 02:25:38;;;;;;;;;;;;;;;17.02;45.84;100607.59;5076326;28;977;-60
2022/09/20 02:28:04;;;;;;;;;;;;;;;16.79;46.20;100603.53;5076418;28;1906;-60
2022/09/20 02:30:48;;;;;;;;;;;;;;;17.63;47.31;100613.91;5076535;28;1115;-60
2022/09/20 02:33:20;;;;;;;;;;;;;;;17.08;47.44;100616.63;5076709;28;1155;-60
2022/09/20 02:36:06;;;;;;;;;;;;;;;18.51;46.82;100611.28;5058391;28;2568;-61
2022/09/20 02:38:55;;;;;;;;;;;;;;;14.35;56.84;100614.19;5059124;28;1119;-59
2022/09/20 02:41:23;;;;;;;;;;;;;;;16.41;48.93;100628.59;5063261;28;1868;-60
2022/09/20 02:44:07;;;;;;;;;;;;;;;17.07;48.78;100618.56;5062349;28;1159;-60
2022/09/20 02:46:49;;;;;;;;;;;;;;;17.33;49.44;100623.13;5076227;28;1166;-60
2022/09/20 02:49:33;;;;;;;;;;;;;;;16.93;48.55;100615.59;5076216;28;1980;-60
2022/09/20 02:52:01;;;;;;;;;;;;;;;16.86;47.90;100625.22;5076278;28;1116;-60
2022/09/20 02:54:45;;;;;;;;;;;;;;;16.82;47.02;100624.13;5076858;28;1096;-60
2022/09/20 02:57:20;;;;;;;;;;;;;;;16.79;46.31;100630.16;5076164;28;1164;-59
2022/09/20 02:59:48;;;;;;;;;;;;;;;17.50;48.07;100622.75;5058348;28;1123;-61
2022/09/20 03:02:30;;;;;;;;;;;;;;;17.03;47.96;100628.47;5058169;28;1135;-59
2022/09/20 03:05:01;;;;;;;;;;;;;;;16.86;47.34;100631.53;5050733;28;2346;-58
2022/09/20 03:07:36;;;;;;;;;;;;;;;17.76;47.46;100626.19;5045458;28;1128;-60
2022/09/20 03:10:06;;;;;;;;;;;;;;;17.01;47.98;100633.44;5058050;28;1910;-61
2022/09/20 03:12:50;;;;;;;;;;;;;;;16.94;47.16;100632.88;5058064;28;1238;-60
2022/09/20 03:15:31;;;;;;;;;;;;;;;16.83;47.31;100636.72;5076218;28;1127;-61
2022/09/20 03:18:15;;;;;;;;;;;;;;;17.34;47.72;100642.09;5075702;28;1242;-60
2022/09/20 03:20:40;;;;;;;;;;;;;;;16.98;47.40;100639.47;5063224;28;1096;-58
2022/09/20 03:23:26;;;;;;;;;;;;;;;17.04;47.01;100643.84;5076104;28;1128;-61
2022/09/20 03:26:10;;;;;;;;;;;;;;;17.57;47.54;100639.75;5058325;28;885;-61
2022/09/20 03:28:37;;;;;;;;;;;;;;;17.12;47.40;100639.69;5062554;28;1905;-61
2022/09/20 03:31:06;;;;;;;;;;;;;;;16.97;46.55;100637.00;5075331;28;1190;-61
2022/09/20 03:33:31;;;;;;;;;;;;;;;16.81;46.19;100645.25;5075692;28;1139;-61
2022/09/20 03:36:09;;;;;;;;;;;;;;;16.73;46.05;100648.56;5075580;28;2544;-59
2022/09/20 03:38:51;;;;;;;;;;;;;;;17.58;47.05;100646.91;5074210;28;1186;-60
2022/09/20 03:41:26;;;;;;;;;;;;;;;17.02;47.26;100653.47;5057579;28;1139;-64
2022/09/20 03:43:51;;;;;;;;;;;;;;;17.16;47.46;100653.72;5075710;28;1175;-63
2022/09/20 03:46:17;;;;;;;;;;;;;;;17.57;47.53;100659.00;5075402;28;1167;-63
2022/09/20 03:49:01;;;;;;;;;;;;;;;17.17;47.31;100664.41;5074656;28;1906;-64
2022/09/20 03:51:39;;;;;;;;;;;;;;;17.70;47.70;100671.34;5064965;28;1092;-65
2022/09/20 03:54:07;;;;;;;;;;;;;;;17.45;47.83;100670.34;5071889;28;1302;-62
2022/09/20 03:56:32;;;;;;;;;;;;;;;17.31;47.88;100672.06;5059318;28;1222;-65
2022/09/20 03:59:16;;;;;;;;;;;;;;;17.22;47.90;100669.91;5070161;28;1318;-67
2022/09/20 04:01:45;;;;;;;;;;;;;;;17.38;47.28;100676.16;5072018;28;1007;-66
2022/09/20 04:04:10;;;;;;;;;;;;;;;17.18;47.51;100688.03;5075662;28;1175;-65
2022/09/20 04:06:39;;;;;;;;;;;;;;;17.67;48.96;100678.22;5075130;28;2630;-64
2022/09/20 04:09:20;;;;;;;;;;;;;;;17.25;48.14;100671.25;5068295;28;1902;-65
2022/09/20 04:11:50;;;;;;;;;;;;;;;17.09;47.23;100668.53;5052653;28;985;-64
2022/09/20 04:14:43;;;;;;;;;;;;;;;17.05;46.35;100675.69;5055790;28;933;-62
2022/09/20 04:17:14;;;;;;;;;;;;;;;16.87;46.29;100679.84;5064161;28;1387;-62
2022/09/20 04:19:40;;;;;;;;;;;;;;;16.83;46.04;100675.19;5057440;28;1108;-59
2022/09/20 04:22:06;;;;;;;;;;;;;;;16.79;45.95;100679.56;5072417;28;1186;-61
2022/09/20 04:24:34;;;;;;;;;;;;;;;16.81;46.38;100682.88;5074927;28;1231;-61
2022/09/20 04:27:18;;;;;;;;;;;;;;;16.90;46.03;100683.97;5078852;28;1182;-58
2022/09/20 04:30:06;;;;;;;;;;;;;;;16.89;46.07;100682.34;5078732;28;1966;-58
2022/09/20 04:32:48;;;;;;;;;;;;;;;16.86;46.10;100682.88;5078939;28;1186;-59
2022/09/20 04:37:58;;;;;;;;;;;;;;;17.03;47.83;100691.66;5066328;28;1095;-61
2022/09/20 04:40:30;;;;;;;;;;;;;;;16.92;47.52;100701.03;5061477;28;1155;-59
2022/09/20 04:43:01;;;;;;;;;;;;;;;16.87;47.00;100698.25;5078855;28;1073;-59
2022/09/20 04:45:31;;;;;;;;;;;;;;;16.87;46.47;100698.25;5072041;28;1259;-61
2022/09/20 04:47:59;;;;;;;;;;;;;;;16.86;46.21;100704.84;5070786;28;1072;-60
2022/09/20 04:50:25;;;;;;;;;;;;;;;16.75;46.26;100702.09;5069335;28;1913;-59
2022/09/20 04:53:14;;;;;;;;;;;;;;;16.82;45.98;100699.09;5077331;28;1289;-60
2022/09/20 04:55:39;;;;;;;;;;;;;;;16.74;46.24;100700.44;5077946;28;1118;-58
2022/09/20 04:58:23;;;;;;;;;;;;;;;16.72;46.14;100708.16;5077990;28;1235;-61
2022/09/20 05:01:06;;;;;;;;;;;;;;;16.69;46.26;100708.72;5077174;28;1135;-61
2022/09/20 05:03:51;;;;;;;;;;;;;;;16.63;45.97;100715.28;5078364;28;1130;-56
2022/09/20 05:06:35;;;;;;;;;;;;;;;16.46;45.92;100714.75;5077997;28;2634;-60
2022/09/20 05:09:19;;;;;;;;;;;;;;;17.52;47.19;100714.03;5072051;28;1893;-61
2022/09/20 05:11:51;;;;;;;;;;;;;;;16.97;47.66;100720.25;5065950;28;1242;-58
2022/09/20 05:14:36;;;;;;;;;;;;;;;16.71;47.13;100709.25;5060437;28;1196;-61
2022/09/20 05:17:10;;;;;;;;;;;;;;;16.70;46.40;100721.31;5060307;28;1092;-65
2022/09/20 05:19:54;;;;;;;;;;;;;;;16.61;45.77;100712.00;5078335;28;1084;-64
2022/09/20 05:22:43;;;;;;;;;;;;;;;16.56;45.64;100715.59;5088002;28;1418;-60
2022/09/20 05:25:09;;;;;;;;;;;;;;;17.23;47.73;100707.25;5053363;28;1573;-57
2022/09/20 05:27:49;;;;;;;;;;;;;;;16.85;47.69;100714.19;5076617;28;1211;-62
2022/09/20 05:30:36;;;;;;;;;;;;;;;18.20;47.94;100707.06;5064312;28;1897;-61
2022/09/20 05:33:25;;;;;;;;;;;;;;;17.17;48.95;100713.88;5059749;28;1284;-58
2022/09/20 05:35:53;;;;;;;;;;;;;;;16.92;48.09;100706.50;5061071;28;2198;-60
2022/09/20 05:38:28;;;;;;;;;;;;;;;16.82;47.41;100703.75;5077789;28;1203;-62
2022/09/20 05:41:13;;;;;;;;;;;;;;;17.93;45.85;100719.34;5073749;28;1127;-60
2022/09/20 05:43:42;;;;;;;;;;;;;;;17.56;46.59;100718.69;5075534;28;1167;-66
2022/09/20 05:46:14;;;;;;;;;;;;;;;17.20;47.74;100727.03;5059676;28;1080;-67
2022/09/20 05:48:44;;;;;;;;;;;;;;;17.04;48.19;100720.78;5053334;28;1979;-61
2022/09/20 05:51:16;;;;;;;;;;;;;;;16.89;48.89;100729.03;5043402;28;1113;-62
2022/09/20 05:53:47;;;;;;;;;;;;;;;16.79;49.37;100720.78;5076267;28;1203;-67
2022/09/20 05:56:15;;;;;;;;;;;;;;;16.75;49.26;100726.00;5067509;28;1103;-58
2022/09/20 05:58:41;;;;;;;;;;;;;;;16.57;49.60;100719.97;5053197;28;1247;-61
2022/09/20 06:01:12;;;;;;;;;;;;;;;16.57;49.95;100724.63;5063959;28;1200;-61
2022/09/20 06:03:44;;;;;;;;;;;;;;;16.50;50.26;100729.59;5072421;28;1158;-59
2022/09/20 06:06:22;;;;;;;;;;;;;;;16.40;50.50;100736.69;5056601;28;1817;-58
2022/09/20 06:08:49;;;;;;;;;;;;;;;16.37;50.59;100737.25;5076801;28;1905;-58
2022/09/20 06:11:33;;;;;;;;;;;;;;;16.24;50.94;100737.78;5076389;28;1123;-61
2022/09/20 06:14:17;;;;;;;;;;;;;;;16.17;51.23;100734.47;5070192;28;1116;-59
2022/09/20 06:16:48;;;;;;;;;;;;;;;16.13;51.54;100734.22;5075499;28;993;-60
2022/09/20 06:19:15;;;;;;;;;;;;;;;16.14;51.42;100746.00;5053240;28;1271;-56
2022/09/20 06:21:54;;;;;;;;;;;;;;;17.57;48.14;100736.00;5076740;28;1052;-57
2022/09/20 06:24:29;;;;;;;;;;;;;;;16.76;49.99;100733.97;5071867;28;857;-60
2022/09/20 06:26:54;;;;;;;;;;;;;;;16.46;51.00;100739.47;5046230;28;1120;-59
2022/09/20 06:29:25;;;;;;;;;;;;;;;16.29;51.46;100732.31;5076669;28;1905;-59
2022/09/20 06:31:51;;;;;;;;;;;;;;;16.23;51.80;100736.97;5076184;28;1095;-63
2022/09/20 06:34:17;;;;;;;;;;;;;;;16.18;51.91;100736.13;5059054;28;1151;-62
2022/09/20 06:42:38;;;;;;;;;;;;;;;16.48;51.30;100729.88;5040847;28;1136;-61
2022/09/20 06:45:04;;;;;;;;;;;;;;;16.34;51.75;100739.72;5075448;28;1096;-64
2022/09/20 06:47:29;;;;;;;;;;;;;;;16.23;52.10;100744.38;5065230;28;1477;-58
2022/09/20 06:49:55;;;;;;;;;;;;;;;16.10;52.18;100718.28;5075941;28;1901;-59
2022/09/20 06:52:21;;;;;;;;;;;;;;;16.22;51.91;100726.25;5075754;28;1163;-60
2022/09/20 06:54:47;;;;;;;;;;;;;;;17.48;49.00;100729.44;5076142;28;1211;-59
2022/09/20 06:57:14;;;;;;;;;;;;;;;16.73;50.56;100730.94;5074620;28;1332;-58
2022/09/20 06:59:40;;;;;;;;;;;;;;;16.47;51.62;100728.19;5076155;28;1112;-60
2022/09/20 07:02:07;;;;;;;;;;;;;;;16.35;51.92;100720.22;5072876;28;1142;-62
2022/09/20 07:04:33;;;;;;;;;;;;;;;16.31;52.15;100721.06;5069648;28;1777;-62
2022/09/20 07:07:02;;;;;;;;;;;;;;;16.17;52.47;100731.72;5071581;28;1269;-61
2022/09/20 07:09:27;;;;;;;;;;;;;;;16.97;50.71;100735.88;5074794;28;1918;-59
2022/09/20 07:11:54;;;;;;;;;;;;;;;17.23;49.56;100733.91;5076111;28;943;-60
2022/09/20 07:14:21;;;;;;;;;;;;;;;16.67;51.10;100738.34;5071856;28;1132;-62
2022/09/20 07:16:46;;;;;;;;;;;;;;;16.49;51.71;100733.41;5065873;28;1207;-63
2022/09/20 07:19:12;;;;;;;;;;;;;;;16.39;51.99;100726.81;5076083;28;1127;-65
2022/09/20 07:21:37;;;;;;;;;;;;;;;16.43;52.07;100733.41;5076082;28;1115;-67
2022/09/20 07:24:03;;;;;;;;;;;;;;;17.57;49.29;100744.25;5075516;28;1315;-64
2022/09/20 07:26:29;;;;;;;;;;;;;;;16.90;50.82;100744.41;5061716;28;1137;-65
2022/09/20 07:28:54;;;;;;;;;;;;;;;16.64;51.61;100740.84;5075732;28;1914;-64
2022/09/20 07:31:21;;;;;;;;;;;;;;;16.50;51.97;100740.56;5075983;28;1124;-63
2022/09/20 07:33:47;;;;;;;;;;;;;;;16.40;52.13;100736.69;5076093;28;1060;-67
2022/09/20 07:36:12;;;;;;;;;;;;;;;16.37;52.36;100740.00;5075505;28;2526;-65
2022/09/20 07:38:38;;;;;;;;;;;;;;;16.27;52.59;100740.00;5073650;28;1255;-60
2022/09/20 07:41:04;;;;;;;;;;;;;;;16.50;52.35;100732.31;5068336;28;1492;-61
2022/09/20 07:43:29;;;;;;;;;;;;;;;17.75;49.35;100729.88;5075536;28;1092;-63
2022/09/20 07:45:55;;;;;;;;;;;;;;;16.94;51.53;100731.75;5075681;28;1148;-63
2022/09/20 07:48:21;;;;;;;;;;;;;;;16.65;52.37;100734.22;5072110;28;1906;-62
2022/09/20 07:50:54;;;;;;;;;;;;;;;16.54;52.94;100733.44;5065413;28;1025;-59
2022/09/20 07:53:19;;;;;;;;;;;;;;;16.42;53.02;100729.03;5066976;28;1365;-57
2022/09/20 07:55:57;;;;;;;;;;;;;;;16.35;53.14;100741.38;5068033;28;1056;-60
2022/09/20 07:58:22;;;;;;;;;;;;;;;16.28;53.11;100722.41;5062622;28;1113;-57
2022/09/20 08:00:52;;;;;;;;;;;;;;;16.93;52.08;100735.63;5068197;28;1144;-59
2022/09/20 08:03:18;;;;;;;;;;;;;;;17.24;50.91;100735.56;5079859;28;1108;-60
2022/09/20 08:05:44;;;;;;;;;;;;;;;16.72;52.58;100738.34;5076385;28;1833;-60
2022/09/20 08:08:10;;;;;;;;;;;;;;;16.57;53.04;100749.34;5070742;28;1036;-63
2022/09/20 08:10:38;;;;;;;;;;;;;;;16.49;53.67;100736.16;5071215;28;1901;-65
2022/09/20 08:13:03;;;;;;;;;;;;;;;16.46;53.88;100743.00;5074018;28;1183;-63
2022/09/20 08:15:29;;;;;;;;;;;;;;;17.39;51.75;100731.94;5078702;28;1278;-65
2022/09/20 08:17:55;;;;;;;;;;;;;;;17.32;52.06;100737.75;5077485;28;1039;-62
2022/09/20 08:20:20;;;;;;;;;;;;;;;16.81;53.49;100732.31;5079310;28;1127;-62
2022/09/20 08:22:46;;;;;;;;;;;;;;;16.71;53.70;100739.44;5079536;28;1271;-61
2022/09/20 08:25:11;;;;;;;;;;;;;;;16.56;54.08;100732.06;5070976;28;884;-60
2022/09/20 08:27:36;;;;;;;;;;;;;;;16.49;53.77;100720.50;5078829;28;1167;-64
2022/09/20 08:30:02;;;;;;;;;;;;;;;16.37;53.99;100729.03;5078653;28;1976;-64
2022/09/20 08:32:28;;;;;;;;;;;;;;;16.31;54.17;100721.88;5079288;28;1198;-66
2022/09/20 08:34:53;;;;;;;;;;;;;;;16.28;54.10;100724.34;5078866;28;1857;-60
2022/09/20 08:37:19;;;;;;;;;;;;;;;17.30;52.34;100728.13;5070350;28;989;-63
2022/09/20 08:39:44;;;;;;;;;;;;;;;17.27;51.94;100718.50;5073403;28;1143;-59
2022/09/20 08:42:29;;;;;;;;;;;;;;;16.76;53.57;100725.72;5078657;28;1104;-58
2022/09/20 08:44:56;;;;;;;;;;;;;;;16.54;53.78;100725.19;5060719;28;1159;-59
2022/09/20 08:47:29;;;;;;;;;;;;;;;16.46;53.77;100720.25;5078842;28;1158;-59
2022/09/20 08:49:55;;;;;;;;;;;;;;;16.47;53.32;100735.63;5077966;28;1901;-59
2022/09/20 08:52:39;;;;;;;;;;;;;;;16.35;53.50;100714.72;5060452;28;1338;-64
2022/09/20 08:55:12;;;;;;;;;;;;;;;17.61;50.78;100706.81;5060701;28;1156;-56
2022/09/20 08:57:38;;;;;;;;;;;;;;;17.14;51.74;100708.09;5078506;28;1131;-57
2022/09/20 09:00:03;;;;;;;;;;;;;;;16.77;52.85;100701.81;5075071;28;1151;-59
2022/09/20 09:02:29;;;;;;;;;;;;;;;16.60;53.22;100700.19;5078488;28;1241;-62
2022/09/20 09:04:55;;;;;;;;;;;;;;;16.50;53.53;100693.91;5078260;28;2260;-65
2022/09/20 09:07:20;;;;;;;;;;;;;;;16.43;53.58;100700.47;5071458;28;1115;-59
2022/09/20 09:09:46;;;;;;;;;;;;;;;16.39;53.67;100691.13;5071736;28;1902;-63
2022/09/20 09:12:19;;;;;;;;;;;;;;;16.57;53.15;100688.94;5074127;28;1213;-65
2022/09/20 09:14:48;;;;;;;;;;;;;;;17.46;50.89;100683.00;5073374;28;1156;-62
2022/09/20 09:17:14;;;;;;;;;;;;;;;16.86;52.56;100674.66;5060473;28;1120;-59
2022/09/20 09:19:52;;;;;;;;;;;;;;;16.67;52.92;100677.13;5077495;28;1135;-60
2022/09/20 09:22:38;;;;;;;;;;;;;;;16.52;53.43;100654.09;5064661;28;1088;-59
2022/09/20 09:28:33;;;;;;;;;;;;;;;16.39;54.00;100671.94;5064186;28;1913;-59
2022/09/20 09:31:17;;;;;;;;;;;;;;;16.61;53.54;100654.38;5072563;28;1259;-57
2022/09/20 09:33:43;;;;;;;;;;;;;;;17.52;51.52;100681.03;5075111;28;1056;-57
2022/09/20 09:36:09;;;;;;;;;;;;;;;16.92;53.20;100692.78;5077381;28;2621;-57
2022/09/20 09:38:35;;;;;;;;;;;;;;;16.72;53.86;100674.41;5077045;28;1206;-57
2022/09/20 09:41:02;;;;;;;;;;;;;;;16.64;54.08;100694.97;5074117;28;1509;-56
2022/09/20 09:43:29;;;;;;;;;;;;;;;16.55;54.14;100688.38;5070703;28;1124;-57
2022/09/20 09:45:55;;;;;;;;;;;;;;;16.46;54.47;100688.13;5077484;28;1036;-56
2022/09/20 09:48:23;;;;;;;;;;;;;;;16.39;54.44;100687.59;5077473;28;1976;-55
2022/09/20 09:50:48;;;;;;;;;;;;;;;17.42;52.76;100682.72;5073604;28;1143;-56
2022/09/20 09:53:15;;;;;;;;;;;;;;;17.27;53.03;100674.53;5059347;28;1186;-57
2022/09/20 09:56:04;;;;;;;;;;;;;;;16.96;53.97;100679.28;5072726;28;1401;-58
2022/09/20 09:58:57;;;;;;;;;;;;;;;16.82;54.22;100690.03;5063635;28;1658;-58
2022/09/20 10:01:32;;;;;;;;;;;;;;;16.77;54.37;100691.69;5037050;28;1154;-63
2022/09/20 10:04:21;;;;;;;;;;;;;;;16.63;54.72;100689.78;5059433;28;1191;-62
2022/09/20 10:06:46;;;;;;;;;;;;;;;16.55;54.64;100685.66;5063795;28;2707;-60
2022/09/20 10:09:15;;;;;;;;;;;;;;;16.47;55.07;100678.00;5073900;28;1969;-60
2022/09/20 10:11:45;;;;;;;;;;;;;;;16.37;54.84;100689.78;5062254;28;1180;-65
2022/09/20 10:14:11;;;;;;;;;;;;;;;16.29;54.78;100682.09;5056363;28;1108;-65
2022/09/20 10:16:47;;;;;;;;;;;;;;;17.66;52.54;100681.25;5077052;28;1377;-64
2022/09/20 10:19:20;;;;;;;;;;;;;;;17.03;53.84;100691.66;5044153;28;1097;-65
2022/09/20 10:21:52;;;;;;;;;;;;;;;16.70;54.74;100684.81;5059570;28;1100;-64
2022/09/20 10:27:48;;;;;;;;;;;;;;;16.41;54.94;100677.97;5733752;22;6939;-55
2022/09/20 10:30:14;;;;;;;;;;;;;;;16.57;54.62;100667.00;5015878;28;1965;-56
2022/09/20 10:32:44;;;;;;;;;;;;;;;17.72;51.94;100664.41;5013958;28;1783;-55
2022/09/20 10:35:18;;;;;;;;;;;;;;;16.92;53.74;100668.06;5009634;28;2024;-55
2022/09/20 10:38:05;;;;;;;;;;;;;;;16.67;54.14;100671.66;5016674;28;1736;-54
2022/09/20 10:43:29;;;;;;;;;;;;;;;16.42;54.53;100660.44;5009704;28;2095;-55
2022/09/20 10:46:05;;;;;;;;;;;;;;;16.36;54.78;100656.03;4998185;28;1129;-57
2022/09/20 10:48:31;;;;;;;;;;;;;;;16.28;54.46;100661.25;4999176;28;1910;-55
2022/09/20 10:50:58;;;;;;;;;;;;;;;16.68;53.82;100662.31;5016673;28;850;-58
2022/09/20 10:53:40;;;;;;;;;;;;;;;17.63;51.57;100649.63;4998552;28;1310;-55
2022/09/20 10:56:12;;;;;;;;;;;;;;;16.84;53.45;100654.88;5002870;28;1025;-60
2022/09/20 10:58:41;;;;;;;;;;;;;;;16.61;53.99;100657.09;4997086;28;1585;-60
2022/09/20 11:01:06;;;;;;;;;;;;;;;16.49;54.17;100640.09;4998389;28;1136;-55
2022/09/20 11:03:50;;;;;;;;;;;;;;;16.38;54.27;100648.34;5011536;28;1164;-54
2022/09/20 11:06:16;;;;;;;;;;;;;;;16.32;54.43;100646.69;5012848;28;1125;-54
2022/09/20 11:08:42;;;;;;;;;;;;;;;16.31;54.26;100646.97;5012220;28;2047;-56
2022/09/20 11:11:08;;;;;;;;;;;;;;;16.73;53.71;100671.38;4998511;28;1112;-56
2022/09/20 11:13:40;;;;;;;;;;;;;;;17.54;51.38;100651.34;4998426;28;2178;-54
2022/09/20 11:16:08;;;;;;;;;;;;;;;16.81;53.51;100656.25;5016546;28;1089;-56
2022/09/20 11:18:40;;;;;;;;;;;;;;;16.62;53.83;100655.16;5015925;28;1135;-55
2022/09/20 11:21:18;;;;;;;;;;;;;;;16.46;54.39;100654.38;5016183;28;1117;-57
2022/09/20 11:23:47;;;;;;;;;;;;;;;16.38;54.32;100653.00;5011990;28;929;-55
2022/09/20 11:26:15;;;;;;;;;;;;;;;16.30;54.68;100650.81;5015990;28;1097;-58
2022/09/20 11:28:50;;;;;;;;;;;;;;;16.78;53.75;100643.06;5007903;28;1914;-56
2022/09/20 11:31:21;;;;;;;;;;;;;;;17.35;52.17;100638.25;5012893;28;1121;-55
2022/09/20 11:33:46;;;;;;;;;;;;;;;16.76;53.47;100637.84;5017524;28;1065;-54
2022/09/20 11:36:20;;;;;;;;;;;;;;;16.55;53.90;100648.06;5016706;28;1325;-55
2022/09/20 11:38:45;;;;;;;;;;;;;;;16.46;54.35;100646.16;5012948;28;1276;-55
2022/09/20 11:41:18;;;;;;;;;;;;;;;16.37;54.19;100643.94;5014763;28;1341;-53
2022/09/20 11:43:44;;;;;;;;;;;;;;;16.30;54.33;100642.56;5012339;28;1692;-55
2022/09/20 11:46:11;;;;;;;;;;;;;;;17.50;52.03;100644.75;5017414;28;1244;-54
2022/09/20 11:48:44;;;;;;;;;;;;;;;17.09;52.81;100641.06;5018315;28;1913;-56
2022/09/20 11:51:19;;;;;;;;;;;;;;;16.84;52.36;100647.44;5018735;28;847;-57
2022/09/20 11:53:44;;;;;;;;;;;;;;;16.62;52.63;100650.53;5006053;28;1169;-56
2022/09/20 11:56:10;;;;;;;;;;;;;;;16.47;53.38;100636.81;5017479;28;1243;-55
2022/09/20 11:59:11;;;;;;;;;;;;;;;16.36;53.54;100645.03;5018625;28;1178;-55
2022/09/20 12:01:37;;;;;;;;;;;;;;;16.29;53.61;100650.00;4997345;28;1318;-55
2022/09/20 12:04:13;;;;;;;;;;;;;;;16.35;53.65;100654.38;5012400;28;1220;-54
2022/09/20 12:06:39;;;;;;;;;;;;;;;17.60;50.42;100640.03;5018211;28;1048;-55
2022/09/20 12:09:24;;;;;;;;;;;;;;;16.87;52.61;100643.31;5017428;28;1976;-55
2022/09/20 12:11:51;;;;;;;;;;;;;;;16.61;53.14;100632.41;5011043;28;1385;-51
2022/09/20 12:14:23;;;;;;;;;;;;;;;16.44;53.58;100638.19;5015489;28;1695;-54
2022/09/20 12:16:48;;;;;;;;;;;;;;;16.35;53.79;100626.94;5015535;28;1169;-54
2022/09/20 12:19:20;;;;;;;;;;;;;;;16.29;54.03;100636.28;5011131;28;1156;-52
2022/09/20 12:21:57;;;;;;;;;;;;;;;17.26;51.64;100634.41;5018520;28;1183;-55
2022/09/20 12:24:28;;;;;;;;;;;;;;;17.12;51.60;100644.38;5010968;28;1208;-55
2022/09/20 12:26:58;;;;;;;;;;;;;;;16.70;52.98;100641.69;5017430;28;1149;-53
2022/09/20 12:29:23;;;;;;;;;;;;;;;16.54;53.64;100637.34;5016139;28;1910;-54
2022/09/20 12:31:49;;;;;;;;;;;;;;;16.46;53.90;100649.69;5019113;28;1187;-52
2022/09/20 12:34:17;;;;;;;;;;;;;;;16.32;54.24;100643.94;5018523;28;1417;-53
2022/09/20 12:36:43;;;;;;;;;;;;;;;16.29;54.23;100640.94;5012979;28;1190;-48
2022/09/20 12:39:09;;;;;;;;;;;;;;;16.22;54.26;100643.97;5011362;28;1332;-52
2022/09/20 12:41:51;;;;;;;;;;;;;;;17.27;51.79;100641.56;5012626;28;1326;-54
2022/09/20 12:44:24;;;;;;;;;;;;;;;16.97;52.61;100637.00;5013419;28;2548;-54
2022/09/20 12:46:51;;;;;;;;;;;;;;;16.60;53.52;100638.97;5013799;28;1336;-55
2022/09/20 12:52:49;;;;;;;;;;;;;;;16.48;53.59;100641.19;5009703;28;1902;-55
2022/09/20 12:54:50;;;;;;;;;;;;;;;16.30;54.04;100635.19;5016349;28;1143;-59
2022/09/20 12:57:17;;;;;;;;;;;;;;;16.30;53.98;100637.91;5011676;28;1033;-58
2022/09/20 12:59:42;;;;;;;;;;;;;;;17.69;50.51;100629.25;5013141;28;1189;-56
2022/09/20 13:02:40;;;;;;;;;;;;;;;16.88;52.52;100631.22;5016767;28;1139;-56
2022/09/20 13:05:24;;;;;;;;;;;;;;;16.59;53.26;100638.16;4983408;28;1309;-55
2022/09/20 13:07:55;;;;;;;;;;;;;;;16.43;53.72;100633.78;5018076;28;1096;-57
2022/09/20 13:10:25;;;;;;;;;;;;;;;16.38;53.60;100642.03;5012026;28;1969;-56
2022/09/20 13:12:52;;;;;;;;;;;;;;;16.28;53.97;100642.84;5013981;28;1819;-56
2022/09/20 13:15:18;;;;;;;;;;;;;;;16.99;52.60;100630.13;5010181;28;907;-58
2022/09/20 13:17:43;;;;;;;;;;;;;;;17.43;50.81;100634.91;5017080;28;1176;-57
2022/09/20 13:20:19;;;;;;;;;;;;;;;16.81;52.74;100628.78;5017044;28;1093;-55
2022/09/20 13:22:45;;;;;;;;;;;;;;;16.59;53.08;100629.09;5016642;28;1116;-55
2022/09/20 13:25:14;;;;;;;;;;;;;;;16.46;53.43;100637.91;5018092;28;1092;-55
2022/09/20 13:28:03;;;;;;;;;;;;;;;16.39;53.63;100632.69;5016435;28;1168;-55
2022/09/20 13:30:32;;;;;;;;;;;;;;;16.30;53.62;100635.19;5006755;28;1914;-53
2022/09/20 13:33:32;;;;;;;;;;;;;;;17.10;51.91;100626.25;5018010;28;1104;-55